sensor_id;sensor_type;location;lat;lon;timestamp;P1;durP1;ratioP1;P2;durP2;ratioP2
3587;SDS011;1808;53.596;9.972;2023-05-15T00:01:25;13.00;;;9.88;;
3587;SDS011;1808;53.596;9.972;2023-05-15T00:03:51;13.75;;;9.40;;
3587;SDS011;1808;53.596;9.972;2023-05-15T00:06:19;13.05;;;9.85;;
3587;SDS011;1808;53.596;9.972;2023-05-15T00:08:45;12.98;;;9.50;;
3587;SDS011;1808;53.596;9.972;2023-05-15T00:11:11;11.43;;;9.25;;
3587;SDS011;1808;53.596;9.972;2023-05-15T00:13:38;9.98;;;8.60;;
3587;SDS011;1808;53.596;9.972;2023-05-15T00:16:06;11.70;;;9.43;;
3587;SDS011;1808;53.596;9.972;2023-05-15T00:18:32;11.30;;;9.95;;
3587;SDS011;1808;53.596;9.972;2023-05-15T00:20:59;12.77;;;9.80;;
3587;SDS011;1808;53.596;9.972;2023-05-15T00:23:25;13.02;;;9.95;;
3587;SDS011;1808;53.596;9.972;2023-05-15T00:25:51;12.95;;;11.10;;
3587;SDS011;1808;53.596;9.972;2023-05-15T00:28:18;13.07;;;11.05;;
3587;SDS011;1808;53.596;9.972;2023-05-15T00:30:44;13.23;;;10.43;;
3587;SDS011;1808;53.596;9.972;2023-05-15T00:33:12;14.13;;;11.35;;
3587;SDS011;1808;53.596;9.972;2023-05-15T00:35:38;15.98;;;10.30;;
3587;SDS011;1808;53.596;9.972;2023-05-15T00:38:04;10.50;;;9.20;;
3587;SDS011;1808;53.596;9.972;2023-05-15T00:40:31;14.25;;;10.27;;
3587;SDS011;1808;53.596;9.972;2023-05-15T00:42:58;15.52;;;10.20;;
3587;SDS011;1808;53.596;9.972;2023-05-15T00:45:24;15.48;;;10.50;;
3587;SDS011;1808;53.596;9.972;2023-05-15T00:47:52;11.82;;;10.25;;
3587;SDS011;1808;53.596;9.972;2023-05-15T00:50:20;14.02;;;10.95;;
3587;SDS011;1808;53.596;9.972;2023-05-15T00:52:47;15.85;;;11.13;;
3587;SDS011;1808;53.596;9.972;2023-05-15T00:55:13;14.95;;;11.43;;
3587;SDS011;1808;53.596;9.972;2023-05-15T00:57:40;14.68;;;11.48;;
3587;SDS011;1808;53.596;9.972;2023-05-15T01:00:07;15.57;;;10.65;;
3587;SDS011;1808;53.596;9.972;2023-05-15T01:02:35;14.45;;;10.57;;
3587;SDS011;1808;53.596;9.972;2023-05-15T01:05:02;13.35;;;10.88;;
3587;SDS011;1808;53.596;9.972;2023-05-15T01:07:31;14.57;;;11.25;;
3587;SDS011;1808;53.596;9.972;2023-05-15T01:10:00;15.13;;;11.05;;
3587;SDS011;1808;53.596;9.972;2023-05-15T01:12:27;14.77;;;11.60;;
3587;SDS011;1808;53.596;9.972;2023-05-15T01:14:55;18.15;;;11.73;;
3587;SDS011;1808;53.596;9.972;2023-05-15T01:17:21;15.07;;;11.50;;
3587;SDS011;1808;53.596;9.972;2023-05-15T01:19:48;15.88;;;11.65;;
3587;SDS011;1808;53.596;9.972;2023-05-15T01:25:30;15.82;;;11.20;;
3587;SDS011;1808;53.596;9.972;2023-05-15T01:28:11;14.40;;;11.32;;
3587;SDS011;1808;53.596;9.972;2023-05-15T01:30:40;13.20;;;11.60;;
3587;SDS011;1808;53.596;9.972;2023-05-15T01:33:10;14.05;;;11.80;;
3587;SDS011;1808;53.596;9.972;2023-05-15T01:35:43;16.88;;;11.88;;
3587;SDS011;1808;53.596;9.972;2023-05-15T01:38:12;14.95;;;12.48;;
3587;SDS011;1808;53.596;9.972;2023-05-15T01:40:41;14.40;;;12.82;;
3587;SDS011;1808;53.596;9.972;2023-05-15T01:43:09;16.13;;;11.77;;
3587;SDS011;1808;53.596;9.972;2023-05-15T01:45:40;14.75;;;11.85;;
3587;SDS011;1808;53.596;9.972;2023-05-15T01:48:08;16.33;;;12.43;;
3587;SDS011;1808;53.596;9.972;2023-05-15T01:50:35;15.05;;;11.45;;
3587;SDS011;1808;53.596;9.972;2023-05-15T01:53:04;12.55;;;11.10;;
3587;SDS011;1808;53.596;9.972;2023-05-15T01:55:32;17.83;;;12.18;;
3587;SDS011;1808;53.596;9.972;2023-05-15T01:57:59;15.40;;;12.02;;
3587;SDS011;1808;53.596;9.972;2023-05-15T02:00:27;14.18;;;11.20;;
3587;SDS011;1808;53.596;9.972;2023-05-15T02:02:54;16.08;;;11.95;;
3587;SDS011;1808;53.596;9.972;2023-05-15T02:05:21;18.27;;;12.38;;
3587;SDS011;1808;53.596;9.972;2023-05-15T02:07:48;18.13;;;12.57;;
3587;SDS011;1808;53.596;9.972;2023-05-15T02:10:14;16.88;;;12.52;;
3587;SDS011;1808;53.596;9.972;2023-05-15T02:12:42;19.40;;;13.40;;
3587;SDS011;1808;53.596;9.972;2023-05-15T02:15:09;16.52;;;12.93;;
3587;SDS011;1808;53.596;9.972;2023-05-15T02:17:37;17.38;;;12.65;;
3587;SDS011;1808;53.596;9.972;2023-05-15T02:20:05;16.65;;;13.18;;
3587;SDS011;1808;53.596;9.972;2023-05-15T02:22:32;17.02;;;12.57;;
3587;SDS011;1808;53.596;9.972;2023-05-15T02:24:59;16.65;;;13.15;;
3587;SDS011;1808;53.596;9.972;2023-05-15T02:27:25;18.40;;;12.38;;
3587;SDS011;1808;53.596;9.972;2023-05-15T02:29:55;18.13;;;12.52;;
3587;SDS011;1808;53.596;9.972;2023-05-15T02:32:30;16.60;;;12.52;;
3587;SDS011;1808;53.596;9.972;2023-05-15T02:35:06;18.58;;;14.50;;
3587;SDS011;1808;53.596;9.972;2023-05-15T02:37:39;16.70;;;13.55;;
3587;SDS011;1808;53.596;9.972;2023-05-15T02:40:07;19.02;;;13.82;;
3587;SDS011;1808;53.596;9.972;2023-05-15T02:42:35;18.02;;;13.18;;
3587;SDS011;1808;53.596;9.972;2023-05-15T02:45:02;16.55;;;13.02;;
3587;SDS011;1808;53.596;9.972;2023-05-15T02:47:28;20.88;;;13.50;;
3587;SDS011;1808;53.596;9.972;2023-05-15T02:49:55;16.50;;;12.77;;
3587;SDS011;1808;53.596;9.972;2023-05-15T02:52:23;19.83;;;12.90;;
3587;SDS011;1808;53.596;9.972;2023-05-15T02:54:49;18.85;;;13.50;;
3587;SDS011;1808;53.596;9.972;2023-05-15T02:57:16;16.67;;;13.35;;
3587;SDS011;1808;53.596;9.972;2023-05-15T02:59:42;15.00;;;13.10;;
3587;SDS011;1808;53.596;9.972;2023-05-15T03:02:08;18.83;;;13.60;;
3587;SDS011;1808;53.596;9.972;2023-05-15T03:04:35;17.50;;;13.93;;
3587;SDS011;1808;53.596;9.972;2023-05-15T03:07:01;17.85;;;13.55;;
3587;SDS011;1808;53.596;9.972;2023-05-15T03:09:29;19.95;;;14.25;;
3587;SDS011;1808;53.596;9.972;2023-05-15T03:11:55;18.50;;;13.55;;
3587;SDS011;1808;53.596;9.972;2023-05-15T03:14:22;17.65;;;14.07;;
3587;SDS011;1808;53.596;9.972;2023-05-15T03:16:48;19.13;;;14.77;;
3587;SDS011;1808;53.596;9.972;2023-05-15T03:19:14;20.63;;;16.30;;
3587;SDS011;1808;53.596;9.972;2023-05-15T03:21:41;19.73;;;13.95;;
3587;SDS011;1808;53.596;9.972;2023-05-15T03:24:07;19.85;;;13.98;;
3587;SDS011;1808;53.596;9.972;2023-05-15T03:26:35;24.00;;;15.10;;
3587;SDS011;1808;53.596;9.972;2023-05-15T03:29:01;22.80;;;15.13;;
3587;SDS011;1808;53.596;9.972;2023-05-15T03:31:28;18.23;;;14.43;;
3587;SDS011;1808;53.596;9.972;2023-05-15T03:33:54;19.60;;;14.68;;
3587;SDS011;1808;53.596;9.972;2023-05-15T03:36:20;18.75;;;15.13;;
3587;SDS011;1808;53.596;9.972;2023-05-15T03:38:47;20.23;;;15.40;;
3587;SDS011;1808;53.596;9.972;2023-05-15T03:41:13;21.38;;;15.52;;
3587;SDS011;1808;53.596;9.972;2023-05-15T03:43:41;20.33;;;15.32;;
3587;SDS011;1808;53.596;9.972;2023-05-15T03:46:07;19.77;;;14.98;;
3587;SDS011;1808;53.596;9.972;2023-05-15T03:48:33;20.27;;;14.98;;
3587;SDS011;1808;53.596;9.972;2023-05-15T03:51:00;19.73;;;13.88;;
3587;SDS011;1808;53.596;9.972;2023-05-15T03:53:26;18.70;;;14.20;;
3587;SDS011;1808;53.596;9.972;2023-05-15T03:55:52;20.85;;;14.98;;
3587;SDS011;1808;53.596;9.972;2023-05-15T03:58:19;19.75;;;14.77;;
3587;SDS011;1808;53.596;9.972;2023-05-15T04:00:46;18.65;;;14.60;;
3587;SDS011;1808;53.596;9.972;2023-05-15T04:03:13;19.73;;;14.55;;
3587;SDS011;1808;53.596;9.972;2023-05-15T04:05:39;20.48;;;16.50;;
3587;SDS011;1808;53.596;9.972;2023-05-15T04:08:05;21.20;;;15.38;;
3587;SDS011;1808;53.596;9.972;2023-05-15T04:10:34;22.33;;;15.70;;
3587;SDS011;1808;53.596;9.972;2023-05-15T04:13:00;22.15;;;16.08;;
3587;SDS011;1808;53.596;9.972;2023-05-15T04:15:26;21.67;;;16.38;;
3587;SDS011;1808;53.596;9.972;2023-05-15T04:17:54;22.08;;;15.43;;
3587;SDS011;1808;53.596;9.972;2023-05-15T04:20:21;22.23;;;16.67;;
3587;SDS011;1808;53.596;9.972;2023-05-15T04:22:48;25.95;;;17.63;;
3587;SDS011;1808;53.596;9.972;2023-05-15T04:25:14;21.35;;;16.10;;
3587;SDS011;1808;53.596;9.972;2023-05-15T04:27:42;26.55;;;16.80;;
3587;SDS011;1808;53.596;9.972;2023-05-15T04:30:09;23.17;;;17.58;;
3587;SDS011;1808;53.596;9.972;2023-05-15T04:32:36;21.98;;;16.42;;
3587;SDS011;1808;53.596;9.972;2023-05-15T04:35:05;22.63;;;16.67;;
3587;SDS011;1808;53.596;9.972;2023-05-15T04:37:34;29.42;;;18.73;;
3587;SDS011;1808;53.596;9.972;2023-05-15T04:40:00;24.33;;;17.40;;
3587;SDS011;1808;53.596;9.972;2023-05-15T04:42:27;26.83;;;18.50;;
3587;SDS011;1808;53.596;9.972;2023-05-15T04:44:53;21.88;;;17.00;;
3587;SDS011;1808;53.596;9.972;2023-05-15T04:47:21;21.45;;;16.35;;
3587;SDS011;1808;53.596;9.972;2023-05-15T04:49:47;23.00;;;16.85;;
3587;SDS011;1808;53.596;9.972;2023-05-15T04:52:15;23.58;;;16.83;;
3587;SDS011;1808;53.596;9.972;2023-05-15T04:54:41;20.65;;;16.85;;
3587;SDS011;1808;53.596;9.972;2023-05-15T04:57:08;22.00;;;16.33;;
3587;SDS011;1808;53.596;9.972;2023-05-15T04:59:34;23.52;;;16.50;;
3587;SDS011;1808;53.596;9.972;2023-05-15T05:02:01;21.73;;;16.33;;
3587;SDS011;1808;53.596;9.972;2023-05-15T05:04:27;20.08;;;16.50;;
3587;SDS011;1808;53.596;9.972;2023-05-15T05:06:56;21.17;;;15.60;;
3587;SDS011;1808;53.596;9.972;2023-05-15T05:09:23;20.48;;;16.48;;
3587;SDS011;1808;53.596;9.972;2023-05-15T05:11:50;20.38;;;15.57;;
3587;SDS011;1808;53.596;9.972;2023-05-15T05:14:16;19.67;;;16.38;;
3587;SDS011;1808;53.596;9.972;2023-05-15T05:16:43;21.38;;;16.25;;
3587;SDS011;1808;53.596;9.972;2023-05-15T05:19:09;21.13;;;15.90;;
3587;SDS011;1808;53.596;9.972;2023-05-15T05:21:36;18.80;;;14.43;;
3587;SDS011;1808;53.596;9.972;2023-05-15T05:24:02;20.63;;;15.23;;
3587;SDS011;1808;53.596;9.972;2023-05-15T05:26:30;20.77;;;15.40;;
3587;SDS011;1808;53.596;9.972;2023-05-15T05:28:56;20.60;;;15.20;;
3587;SDS011;1808;53.596;9.972;2023-05-15T05:31:22;19.30;;;14.80;;
3587;SDS011;1808;53.596;9.972;2023-05-15T05:33:49;17.95;;;14.85;;
3587;SDS011;1808;53.596;9.972;2023-05-15T05:36:16;20.58;;;15.27;;
3587;SDS011;1808;53.596;9.972;2023-05-15T05:38:42;19.58;;;15.55;;
3587;SDS011;1808;53.596;9.972;2023-05-15T05:41:09;27.42;;;18.20;;
3587;SDS011;1808;53.596;9.972;2023-05-15T05:43:36;21.23;;;15.48;;
3587;SDS011;1808;53.596;9.972;2023-05-15T05:46:03;23.30;;;16.67;;
3587;SDS011;1808;53.596;9.972;2023-05-15T05:48:29;23.50;;;17.27;;
3587;SDS011;1808;53.596;9.972;2023-05-15T05:50:56;20.95;;;15.90;;
3587;SDS011;1808;53.596;9.972;2023-05-15T05:53:22;20.75;;;16.67;;
3587;SDS011;1808;53.596;9.972;2023-05-15T05:55:49;23.52;;;16.38;;
3587;SDS011;1808;53.596;9.972;2023-05-15T05:58:15;20.42;;;15.15;;
3587;SDS011;1808;53.596;9.972;2023-05-15T06:00:44;20.50;;;14.60;;
3587;SDS011;1808;53.596;9.972;2023-05-15T06:03:11;29.25;;;17.33;;
3587;SDS011;1808;53.596;9.972;2023-05-15T06:05:37;19.27;;;13.52;;
3587;SDS011;1808;53.596;9.972;2023-05-15T06:08:04;18.60;;;14.95;;
3587;SDS011;1808;53.596;9.972;2023-05-15T06:10:31;19.52;;;14.48;;
3587;SDS011;1808;53.596;9.972;2023-05-15T06:12:57;18.67;;;14.38;;
3587;SDS011;1808;53.596;9.972;2023-05-15T06:15:23;18.77;;;13.48;;
3587;SDS011;1808;53.596;9.972;2023-05-15T06:17:51;16.63;;;13.02;;
3587;SDS011;1808;53.596;9.972;2023-05-15T06:20:17;16.00;;;13.65;;
3587;SDS011;1808;53.596;9.972;2023-05-15T06:22:44;17.73;;;13.82;;
3587;SDS011;1808;53.596;9.972;2023-05-15T06:25:10;14.35;;;11.88;;
3587;SDS011;1808;53.596;9.972;2023-05-15T06:27:39;16.42;;;11.98;;
3587;SDS011;1808;53.596;9.972;2023-05-15T06:30:06;15.40;;;11.75;;
3587;SDS011;1808;53.596;9.972;2023-05-15T06:32:32;15.20;;;11.73;;
3587;SDS011;1808;53.596;9.972;2023-05-15T06:35:01;14.77;;;11.10;;
3587;SDS011;1808;53.596;9.972;2023-05-15T06:37:27;12.80;;;10.35;;
3587;SDS011;1808;53.596;9.972;2023-05-15T06:39:53;17.85;;;12.30;;
3587;SDS011;1808;53.596;9.972;2023-05-15T06:42:20;14.20;;;10.32;;
3587;SDS011;1808;53.596;9.972;2023-05-15T06:44:46;23.02;;;11.30;;
3587;SDS011;1808;53.596;9.972;2023-05-15T06:47:13;13.52;;;10.35;;
3587;SDS011;1808;53.596;9.972;2023-05-15T06:49:40;12.15;;;9.98;;
3587;SDS011;1808;53.596;9.972;2023-05-15T06:52:07;13.55;;;9.07;;
3587;SDS011;1808;53.596;9.972;2023-05-15T06:54:34;14.23;;;10.20;;
3587;SDS011;1808;53.596;9.972;2023-05-15T06:57:00;10.60;;;8.55;;
3587;SDS011;1808;53.596;9.972;2023-05-15T06:59:26;9.60;;;7.68;;
3587;SDS011;1808;53.596;9.972;2023-05-15T07:01:52;11.20;;;7.55;;
3587;SDS011;1808;53.596;9.972;2023-05-15T07:04:20;9.45;;;6.72;;
3587;SDS011;1808;53.596;9.972;2023-05-15T07:06:46;12.43;;;8.38;;
3587;SDS011;1808;53.596;9.972;2023-05-15T07:09:13;8.68;;;6.88;;
3587;SDS011;1808;53.596;9.972;2023-05-15T07:11:40;8.75;;;6.97;;
3587;SDS011;1808;53.596;9.972;2023-05-15T07:14:06;9.70;;;7.13;;
3587;SDS011;1808;53.596;9.972;2023-05-15T07:16:32;7.93;;;6.47;;
3587;SDS011;1808;53.596;9.972;2023-05-15T07:18:59;9.90;;;6.45;;
3587;SDS011;1808;53.596;9.972;2023-05-15T07:21:25;13.38;;;5.22;;
3587;SDS011;1808;53.596;9.972;2023-05-15T07:23:51;5.78;;;5.00;;
3587;SDS011;1808;53.596;9.972;2023-05-15T07:26:19;6.97;;;5.80;;
3587;SDS011;1808;53.596;9.972;2023-05-15T07:28:46;9.82;;;6.30;;
3587;SDS011;1808;53.596;9.972;2023-05-15T07:31:12;7.05;;;5.90;;
3587;SDS011;1808;53.596;9.972;2023-05-15T07:33:38;8.65;;;6.05;;
3587;SDS011;1808;53.596;9.972;2023-05-15T07:36:05;8.48;;;5.95;;
3587;SDS011;1808;53.596;9.972;2023-05-15T07:38:31;8.68;;;5.88;;
3587;SDS011;1808;53.596;9.972;2023-05-15T07:40:57;9.05;;;6.95;;
3587;SDS011;1808;53.596;9.972;2023-05-15T07:43:25;7.90;;;5.55;;
3587;SDS011;1808;53.596;9.972;2023-05-15T07:45:51;7.82;;;4.82;;
3587;SDS011;1808;53.596;9.972;2023-05-15T07:48:18;8.35;;;5.60;;
3587;SDS011;1808;53.596;9.972;2023-05-15T07:50:45;9.02;;;5.75;;
3587;SDS011;1808;53.596;9.972;2023-05-15T07:53:12;8.10;;;4.75;;
3587;SDS011;1808;53.596;9.972;2023-05-15T07:55:40;7.32;;;4.65;;
3587;SDS011;1808;53.596;9.972;2023-05-15T07:58:08;9.45;;;5.03;;
3587;SDS011;1808;53.596;9.972;2023-05-15T08:00:36;8.63;;;4.47;;
3587;SDS011;1808;53.596;9.972;2023-05-15T08:03:02;8.27;;;4.85;;
3587;SDS011;1808;53.596;9.972;2023-05-15T08:05:29;5.85;;;4.85;;
3587;SDS011;1808;53.596;9.972;2023-05-15T08:07:55;7.13;;;4.78;;
3587;SDS011;1808;53.596;9.972;2023-05-15T08:10:22;7.68;;;5.13;;
3587;SDS011;1808;53.596;9.972;2023-05-15T08:12:48;7.57;;;4.82;;
3587;SDS011;1808;53.596;9.972;2023-05-15T08:15:15;7.88;;;5.03;;
3587;SDS011;1808;53.596;9.972;2023-05-15T08:17:43;13.00;;;5.50;;
3587;SDS011;1808;53.596;9.972;2023-05-15T08:20:10;7.25;;;4.28;;
3587;SDS011;1808;53.596;9.972;2023-05-15T08:22:37;7.95;;;4.88;;
3587;SDS011;1808;53.596;9.972;2023-05-15T08:25:03;6.75;;;4.97;;
3587;SDS011;1808;53.596;9.972;2023-05-15T08:27:31;8.85;;;5.60;;
3587;SDS011;1808;53.596;9.972;2023-05-15T08:29:57;7.43;;;5.07;;
3587;SDS011;1808;53.596;9.972;2023-05-15T08:32:23;6.70;;;5.28;;
3587;SDS011;1808;53.596;9.972;2023-05-15T08:34:52;7.85;;;5.20;;
3587;SDS011;1808;53.596;9.972;2023-05-15T08:37:18;10.30;;;6.00;;
3587;SDS011;1808;53.596;9.972;2023-05-15T08:39:44;6.72;;;4.97;;
3587;SDS011;1808;53.596;9.972;2023-05-15T08:42:13;7.55;;;5.10;;
3587;SDS011;1808;53.596;9.972;2023-05-15T08:44:43;7.03;;;4.72;;
3587;SDS011;1808;53.596;9.972;2023-05-15T08:47:09;6.95;;;5.28;;
3587;SDS011;1808;53.596;9.972;2023-05-15T08:49:38;6.93;;;5.07;;
3587;SDS011;1808;53.596;9.972;2023-05-15T08:52:11;5.22;;;4.72;;
3587;SDS011;1808;53.596;9.972;2023-05-15T08:54:37;8.90;;;4.72;;
3587;SDS011;1808;53.596;9.972;2023-05-15T08:57:05;5.13;;;4.40;;
3587;SDS011;1808;53.596;9.972;2023-05-15T08:59:31;6.53;;;4.38;;
3587;SDS011;1808;53.596;9.972;2023-05-15T09:01:58;7.85;;;4.40;;
3587;SDS011;1808;53.596;9.972;2023-05-15T09:04:24;8.05;;;4.47;;
3587;SDS011;1808;53.596;9.972;2023-05-15T09:06:51;6.72;;;4.93;;
3587;SDS011;1808;53.596;9.972;2023-05-15T09:09:19;8.02;;;4.72;;
3587;SDS011;1808;53.596;9.972;2023-05-15T09:11:46;7.47;;;4.75;;
3587;SDS011;1808;53.596;9.972;2023-05-15T09:14:13;5.78;;;4.68;;
3587;SDS011;1808;53.596;9.972;2023-05-15T09:16:39;5.78;;;4.30;;
3587;SDS011;1808;53.596;9.972;2023-05-15T09:19:06;5.93;;;4.32;;
3587;SDS011;1808;53.596;9.972;2023-05-15T09:21:32;7.70;;;5.20;;
3587;SDS011;1808;53.596;9.972;2023-05-15T09:24:15;6.03;;;4.97;;
3587;SDS011;1808;53.596;9.972;2023-05-15T09:29:09;13.63;;;5.03;;
3587;SDS011;1808;53.596;9.972;2023-05-15T09:31:36;7.43;;;4.57;;
3587;SDS011;1808;53.596;9.972;2023-05-15T09:34:02;8.45;;;5.65;;
3587;SDS011;1808;53.596;9.972;2023-05-15T09:36:30;8.85;;;5.68;;
3587;SDS011;1808;53.596;9.972;2023-05-15T09:38:57;8.35;;;4.72;;
3587;SDS011;1808;53.596;9.972;2023-05-15T09:41:24;5.78;;;4.47;;
3587;SDS011;1808;53.596;9.972;2023-05-15T09:43:53;7.97;;;4.40;;
3587;SDS011;1808;53.596;9.972;2023-05-15T09:46:20;5.68;;;2.97;;
3587;SDS011;1808;53.596;9.972;2023-05-15T09:48:47;6.18;;;4.30;;
3587;SDS011;1808;53.596;9.972;2023-05-15T09:51:14;9.13;;;4.50;;
3587;SDS011;1808;53.596;9.972;2023-05-15T09:53:41;6.70;;;4.05;;
3587;SDS011;1808;53.596;9.972;2023-05-15T09:56:07;7.72;;;4.75;;
3587;SDS011;1808;53.596;9.972;2023-05-15T09:58:34;5.43;;;4.13;;
3587;SDS011;1808;53.596;9.972;2023-05-15T10:01:02;5.63;;;4.45;;
3587;SDS011;1808;53.596;9.972;2023-05-15T10:03:35;7.53;;;4.25;;
3587;SDS011;1808;53.596;9.972;2023-05-15T10:06:02;5.78;;;4.10;;
3587;SDS011;1808;53.596;9.972;2023-05-15T10:08:29;6.93;;;4.40;;
3587;SDS011;1808;53.596;9.972;2023-05-15T10:10:57;7.65;;;4.50;;
3587;SDS011;1808;53.596;9.972;2023-05-15T10:13:25;8.82;;;3.97;;
3587;SDS011;1808;53.596;9.972;2023-05-15T10:15:51;5.45;;;3.90;;
3587;SDS011;1808;53.596;9.972;2023-05-15T10:18:20;7.72;;;4.35;;
3587;SDS011;1808;53.596;9.972;2023-05-15T10:20:49;5.85;;;4.05;;
3587;SDS011;1808;53.596;9.972;2023-05-15T10:23:16;6.53;;;4.18;;
3587;SDS011;1808;53.596;9.972;2023-05-15T10:25:44;6.22;;;4.43;;
3587;SDS011;1808;53.596;9.972;2023-05-15T10:28:14;7.50;;;4.55;;
3587;SDS011;1808;53.596;9.972;2023-05-15T10:30:40;8.82;;;4.57;;
3587;SDS011;1808;53.596;9.972;2023-05-15T10:33:07;7.03;;;4.20;;
3587;SDS011;1808;53.596;9.972;2023-05-15T10:35:35;6.78;;;4.30;;
3587;SDS011;1808;53.596;9.972;2023-05-15T10:38:03;8.38;;;4.20;;
3587;SDS011;1808;53.596;9.972;2023-05-15T10:40:31;6.85;;;4.28;;
3587;SDS011;1808;53.596;9.972;2023-05-15T10:42:58;7.45;;;4.10;;
3587;SDS011;1808;53.596;9.972;2023-05-15T10:45:25;8.05;;;4.45;;
3587;SDS011;1808;53.596;9.972;2023-05-15T10:47:51;6.68;;;4.78;;
3587;SDS011;1808;53.596;9.972;2023-05-15T10:50:18;5.63;;;4.20;;
3587;SDS011;1808;53.596;9.972;2023-05-15T10:52:46;5.53;;;4.50;;
3587;SDS011;1808;53.596;9.972;2023-05-15T10:55:16;8.07;;;4.60;;
3587;SDS011;1808;53.596;9.972;2023-05-15T10:57:43;6.57;;;5.07;;
3587;SDS011;1808;53.596;9.972;2023-05-15T11:00:23;5.93;;;4.63;;
3587;SDS011;1808;53.596;9.972;2023-05-15T11:02:50;7.20;;;4.72;;
3587;SDS011;1808;53.596;9.972;2023-05-15T11:05:17;6.85;;;5.00;;
3587;SDS011;1808;53.596;9.972;2023-05-15T11:07:46;6.20;;;4.80;;
3587;SDS011;1808;53.596;9.972;2023-05-15T11:10:35;7.13;;;4.07;;
3587;SDS011;1808;53.596;9.972;2023-05-15T11:13:03;8.63;;;4.75;;
3587;SDS011;1808;53.596;9.972;2023-05-15T11:15:39;5.47;;;4.43;;
3587;SDS011;1808;53.596;9.972;2023-05-15T11:18:06;8.15;;;4.82;;
3587;SDS011;1808;53.596;9.972;2023-05-15T11:20:33;6.97;;;4.93;;
3587;SDS011;1808;53.596;9.972;2023-05-15T11:23:04;6.85;;;4.50;;
3587;SDS011;1808;53.596;9.972;2023-05-15T11:25:31;8.05;;;4.22;;
3587;SDS011;1808;53.596;9.972;2023-05-15T11:27:58;10.32;;;4.65;;
3587;SDS011;1808;53.596;9.972;2023-05-15T11:30:35;6.00;;;4.20;;
3587;SDS011;1808;53.596;9.972;2023-05-15T11:33:03;7.10;;;4.22;;
3587;SDS011;1808;53.596;9.972;2023-05-15T11:35:33;4.63;;;3.88;;
3587;SDS011;1808;53.596;9.972;2023-05-15T11:38:00;4.13;;;3.53;;
3587;SDS011;1808;53.596;9.972;2023-05-15T11:40:29;7.72;;;4.40;;
3587;SDS011;1808;53.596;9.972;2023-05-15T11:43:00;5.35;;;4.28;;
3587;SDS011;1808;53.596;9.972;2023-05-15T11:45:32;8.93;;;4.50;;
3587;SDS011;1808;53.596;9.972;2023-05-15T11:47:59;6.00;;;4.00;;
3587;SDS011;1808;53.596;9.972;2023-05-15T11:50:26;5.53;;;4.18;;
3587;SDS011;1808;53.596;9.972;2023-05-15T11:52:53;6.72;;;5.10;;
3587;SDS011;1808;53.596;9.972;2023-05-15T11:55:19;7.30;;;4.68;;
3587;SDS011;1808;53.596;9.972;2023-05-15T11:57:47;6.65;;;4.60;;
3587;SDS011;1808;53.596;9.972;2023-05-15T12:00:14;5.60;;;4.68;;
3587;SDS011;1808;53.596;9.972;2023-05-15T12:02:40;6.03;;;4.53;;
3587;SDS011;1808;53.596;9.972;2023-05-15T12:05:07;6.32;;;4.70;;
3587;SDS011;1808;53.596;9.972;2023-05-15T12:07:35;8.30;;;4.07;;
3587;SDS011;1808;53.596;9.972;2023-05-15T12:10:02;7.95;;;4.75;;
3587;SDS011;1808;53.596;9.972;2023-05-15T12:12:29;6.10;;;4.57;;
3587;SDS011;1808;53.596;9.972;2023-05-15T12:14:57;7.03;;;5.13;;
3587;SDS011;1808;53.596;9.972;2023-05-15T12:17:24;6.35;;;4.50;;
3587;SDS011;1808;53.596;9.972;2023-05-15T12:19:51;6.32;;;4.60;;
3587;SDS011;1808;53.596;9.972;2023-05-15T12:22:18;7.30;;;5.45;;
3587;SDS011;1808;53.596;9.972;2023-05-15T12:24:45;11.20;;;5.50;;
3587;SDS011;1808;53.596;9.972;2023-05-15T12:27:12;5.43;;;4.40;;
3587;SDS011;1808;53.596;9.972;2023-05-15T12:29:38;7.40;;;5.50;;
3587;SDS011;1808;53.596;9.972;2023-05-15T12:32:07;9.18;;;5.97;;
3587;SDS011;1808;53.596;9.972;2023-05-15T12:34:33;10.20;;;6.10;;
3587;SDS011;1808;53.596;9.972;2023-05-15T12:37:00;8.13;;;6.30;;
3587;SDS011;1808;53.596;9.972;2023-05-15T12:39:26;12.52;;;6.88;;
3587;SDS011;1808;53.596;9.972;2023-05-15T12:41:52;14.80;;;8.38;;
3587;SDS011;1808;53.596;9.972;2023-05-15T12:44:19;14.52;;;8.45;;
3587;SDS011;1808;53.596;9.972;2023-05-15T12:46:45;14.07;;;9.00;;
3587;SDS011;1808;53.596;9.972;2023-05-15T12:49:13;11.20;;;8.80;;
3587;SDS011;1808;53.596;9.972;2023-05-15T12:51:46;13.70;;;10.00;;
3587;SDS011;1808;53.596;9.972;2023-05-15T12:54:15;17.17;;;9.88;;
3587;SDS011;1808;53.596;9.972;2023-05-15T12:56:42;12.75;;;9.25;;
3587;SDS011;1808;53.596;9.972;2023-05-15T12:59:08;17.17;;;11.95;;
3587;SDS011;1808;53.596;9.972;2023-05-15T13:01:35;22.15;;;9.52;;
3587;SDS011;1808;53.596;9.972;2023-05-15T13:04:02;16.90;;;9.13;;
3587;SDS011;1808;53.596;9.972;2023-05-15T13:06:29;19.58;;;11.60;;
3587;SDS011;1808;53.596;9.972;2023-05-15T13:08:56;16.67;;;12.05;;
3587;SDS011;1808;53.596;9.972;2023-05-15T13:11:23;17.52;;;14.27;;
3587;SDS011;1808;53.596;9.972;2023-05-15T13:13:55;21.55;;;14.80;;
3587;SDS011;1808;53.596;9.972;2023-05-15T13:16:22;15.65;;;12.80;;
3587;SDS011;1808;53.596;9.972;2023-05-15T13:18:50;16.23;;;12.70;;
3587;SDS011;1808;53.596;9.972;2023-05-15T13:21:16;22.88;;;16.20;;
3587;SDS011;1808;53.596;9.972;2023-05-15T13:23:44;22.02;;;15.45;;
3587;SDS011;1808;53.596;9.972;2023-05-15T13:26:11;20.50;;;15.10;;
3587;SDS011;1808;53.596;9.972;2023-05-15T13:28:37;21.77;;;17.05;;
3587;SDS011;1808;53.596;9.972;2023-05-15T13:31:03;23.15;;;15.90;;
3587;SDS011;1808;53.596;9.972;2023-05-15T13:33:30;21.23;;;14.02;;
3587;SDS011;1808;53.596;9.972;2023-05-15T13:35:58;22.30;;;16.02;;
3587;SDS011;1808;53.596;9.972;2023-05-15T13:38:24;19.15;;;13.93;;
3587;SDS011;1808;53.596;9.972;2023-05-15T13:40:52;24.25;;;14.73;;
3587;SDS011;1808;53.596;9.972;2023-05-15T13:43:18;20.38;;;15.93;;
3587;SDS011;1808;53.596;9.972;2023-05-15T13:45:44;23.92;;;14.30;;
3587;SDS011;1808;53.596;9.972;2023-05-15T13:48:10;20.05;;;13.07;;
3587;SDS011;1808;53.596;9.972;2023-05-15T13:50:37;18.40;;;14.02;;
3587;SDS011;1808;53.596;9.972;2023-05-15T13:53:03;20.52;;;14.10;;
3587;SDS011;1808;53.596;9.972;2023-05-15T13:55:30;20.30;;;13.38;;
3587;SDS011;1808;53.596;9.972;2023-05-15T13:57:57;19.10;;;15.32;;
3587;SDS011;1808;53.596;9.972;2023-05-15T14:00:24;26.88;;;18.05;;
3587;SDS011;1808;53.596;9.972;2023-05-15T14:02:50;20.27;;;14.75;;
3587;SDS011;1808;53.596;9.972;2023-05-15T14:05:16;18.90;;;13.90;;
3587;SDS011;1808;53.596;9.972;2023-05-15T14:07:43;26.73;;;18.27;;
3587;SDS011;1808;53.596;9.972;2023-05-15T14:10:10;27.92;;;16.52;;
3587;SDS011;1808;53.596;9.972;2023-05-15T14:12:36;21.95;;;18.25;;
3587;SDS011;1808;53.596;9.972;2023-05-15T14:15:05;22.15;;;15.52;;
3587;SDS011;1808;53.596;9.972;2023-05-15T14:17:32;23.15;;;18.13;;
3587;SDS011;1808;53.596;9.972;2023-05-15T14:19:59;29.60;;;20.08;;
3587;SDS011;1808;53.596;9.972;2023-05-15T14:22:25;26.05;;;17.90;;
3587;SDS011;1808;53.596;9.972;2023-05-15T14:24:51;23.23;;;18.63;;
3587;SDS011;1808;53.596;9.972;2023-05-15T14:27:18;30.75;;;18.40;;
3587;SDS011;1808;53.596;9.972;2023-05-15T14:29:44;31.50;;;20.52;;
3587;SDS011;1808;53.596;9.972;2023-05-15T14:32:13;24.98;;;20.65;;
3587;SDS011;1808;53.596;9.972;2023-05-15T14:34:40;20.98;;;14.02;;
3587;SDS011;1808;53.596;9.972;2023-05-15T14:37:06;24.10;;;18.52;;
3587;SDS011;1808;53.596;9.972;2023-05-15T14:39:32;26.98;;;19.05;;
3587;SDS011;1808;53.596;9.972;2023-05-15T14:41:59;29.42;;;17.88;;
3587;SDS011;1808;53.596;9.972;2023-05-15T14:44:25;28.45;;;19.55;;
3587;SDS011;1808;53.596;9.972;2023-05-15T14:47:03;24.30;;;17.33;;
3587;SDS011;1808;53.596;9.972;2023-05-15T14:49:31;23.13;;;15.10;;
3587;SDS011;1808;53.596;9.972;2023-05-15T14:51:58;26.20;;;18.33;;
3587;SDS011;1808;53.596;9.972;2023-05-15T14:54:24;21.83;;;18.30;;
3587;SDS011;1808;53.596;9.972;2023-05-15T14:56:51;20.67;;;16.20;;
3587;SDS011;1808;53.596;9.972;2023-05-15T14:59:17;24.17;;;16.50;;
3587;SDS011;1808;53.596;9.972;2023-05-15T15:01:43;24.98;;;16.00;;
3587;SDS011;1808;53.596;9.972;2023-05-15T15:04:10;29.38;;;21.23;;